TimeCDT,TemperatureF,Dew PointF,Humidity,Sea Level PressureIn,VisibilityMPH,Wind Direction,Wind SpeedMPH,Gust SpeedMPH,PrecipitationIn,Events,Conditions,WindDirDegrees,DateUTC
12:55 AM,30.6,30.4,99,30.01,10.0,East,3.5,-,N/A,,Clear,100,2011-10-22 05:55:00
1:55 AM,30.4,30.0,99,30.01,10.0,ESE,4.6,-,N/A,,Clear,110,2011-10-22 06:55:00
2:55 AM,29.1,28.9,99,30.00,10.0,East,4.6,-,N/A,,Clear,100,2011-10-22 07:55:00
3:55 AM,29.3,29.1,99,30.01,10.0,Calm,Calm,-,N/A,,Clear,0,2011-10-22 08:55:00
4:55 AM,27.5,27.5,100,30.01,10.0,Calm,Calm,-,N/A,,Clear,0,2011-10-22 09:55:00
5:55 AM,26.4,26.4,100,30.03,3.0,Calm,Calm,-,N/A,,Clear,0,2011-10-22 10:55:00
5:57 AM,26.6,26.6,100,30.02,2.5,Calm,Calm,-,N/A,,Clear,0,2011-10-22 10:57:00
5:59 AM,26.6,26.6,100,30.02,2.0,Calm,Calm,-,N/A,,Clear,0,2011-10-22 10:59:00
6:02 AM,24.8,24.8,100,30.03,1.8,Calm,Calm,-,N/A,,Clear,0,2011-10-22 11:02:00
6:05 AM,24.8,24.8,100,30.03,2.0,Calm,Calm,-,N/A,,Clear,0,2011-10-22 11:05:00
6:07 AM,24.8,24.8,100,30.03,2.5,Calm,Calm,-,N/A,,Clear,0,2011-10-22 11:07:00
6:09 AM,24.8,24.8,100,30.03,3.0,Calm,Calm,-,N/A,,Clear,0,2011-10-22 11:09:00
6:16 AM,26.6,26.6,100,30.03,2.5,Calm,Calm,-,N/A,,Clear,0,2011-10-22 11:16:00
6:18 AM,24.8,24.8,100,30.03,2.0,Calm,Calm,-,N/A,,Clear,0,2011-10-22 11:18:00
6:20 AM,24.8,24.8,100,30.03,1.8,Calm,Calm,-,N/A,,Clear,0,2011-10-22 11:20:00
6:27 AM,24.8,24.8,100,30.04,2.0,Calm,Calm,-,N/A,,Clear,0,2011-10-22 11:27:00
6:34 AM,24.8,24.8,100,30.04,2.5,Calm,Calm,-,N/A,,Clear,0,2011-10-22 11:34:00
6:38 AM,24.8,24.8,100,30.04,3.0,Calm,Calm,-,N/A,,Clear,0,2011-10-22 11:38:00
6:55 AM,24.8,24.6,99,30.05,3.0,Calm,Calm,-,N/A,,Clear,0,2011-10-22 11:55:00
7:13 AM,24.8,24.8,100,30.05,2.5,Calm,Calm,-,N/A,,Clear,0,2011-10-22 12:13:00
7:14 AM,24.8,24.8,100,30.05,2.0,Calm,Calm,-,N/A,,Clear,0,2011-10-22 12:14:00
7:15 AM,24.8,24.8,100,30.05,1.8,Calm,Calm,-,N/A,,Clear,0,2011-10-22 12:15:00
7:16 AM,24.8,24.8,100,30.05,1.5,Calm,Calm,-,N/A,,Clear,0,2011-10-22 12:16:00
7:17 AM,24.8,24.8,100,30.05,1.2,Calm,Calm,-,N/A,,Clear,0,2011-10-22 12:17:00
7:26 AM,24.8,24.8,100,30.05,1.5,Calm,Calm,-,N/A,,Clear,0,2011-10-22 12:26:00
7:28 AM,24.8,24.8,100,30.05,1.8,Calm,Calm,-,N/A,,Clear,0,2011-10-22 12:28:00
7:29 AM,24.8,24.8,100,30.05,2.0,Calm,Calm,-,N/A,,Clear,0,2011-10-22 12:29:00
7:30 AM,24.8,24.8,100,30.05,2.5,Calm,Calm,-,N/A,,Clear,0,2011-10-22 12:30:00
7:32 AM,24.8,24.8,100,30.05,3.0,Calm,Calm,-,N/A,,Clear,0,2011-10-22 12:32:00
7:55 AM,25.2,25.2,100,30.07,7.0,NW,3.5,-,N/A,,Clear,310,2011-10-22 12:55:00
8:55 AM,36.3,36.3,100,30.08,10.0,WNW,3.5,-,N/A,,Clear,290,2011-10-22 13:55:00
9:55 AM,47.8,36.0,63,30.08,7.0,WNW,9.2,-,N/A,,Clear,300,2011-10-22 14:55:00
10:55 AM,51.4,36.1,56,30.08,7.0,WNW,4.6,-,N/A,,Clear,300,2011-10-22 15:55:00
11:55 AM,57.4,37.2,47,30.08,3.0,NW,10.4,-,N/A,,Haze,320,2011-10-22 16:55:00
12:55 PM,60.4,37.8,43,30.05,3.0,NW,10.4,-,N/A,,Haze,320,2011-10-22 17:55:00
1:55 PM,61.5,37.0,40,30.04,10.0,NW,6.9,-,N/A,,Clear,320,2011-10-22 18:55:00
2:55 PM,62.1,34.2,35,30.03,10.0,NNW,10.4,18.4,N/A,,Clear,330,2011-10-22 19:55:00
3:55 PM,62.1,33.6,34,30.04,10.0,NNW,6.9,-,N/A,,Clear,340,2011-10-22 20:55:00
4:55 PM,60.1,33.8,37,30.03,10.0,NW,6.9,-,N/A,,Clear,310,2011-10-22 21:55:00
5:55 PM,50.7,33.6,52,30.04,10.0,NW,4.6,-,N/A,,Clear,320,2011-10-22 22:55:00
6:55 PM,44.4,33.8,66,30.06,10.0,WSW,4.6,-,N/A,,Clear,240,2011-10-22 23:55:00
7:55 PM,34.0,32.7,95,30.06,10.0,West,4.6,-,N/A,,Clear,260,2011-10-23 00:55:00
8:55 PM,34.0,33.8,99,30.06,10.0,Calm,Calm,-,N/A,,Clear,0,2011-10-23 01:55:00
9:55 PM,32.2,32.2,100,30.06,9.0,Calm,Calm,-,N/A,,Clear,0,2011-10-23 02:55:00
10:55 PM,30.4,30.4,100,30.04,10.0,Calm,Calm,-,N/A,,Clear,0,2011-10-23 03:55:00
11:13 PM,30.2,30.2,100,30.04,2.5,Calm,Calm,-,N/A,,Clear,0,2011-10-23 04:13:00
11:14 PM,30.2,30.2,100,30.04,2.0,Calm,Calm,-,N/A,,Clear,0,2011-10-23 04:14:00
11:15 PM,30.2,30.2,100,30.04,1.8,Calm,Calm,-,N/A,,Clear,0,2011-10-23 04:15:00
11:20 PM,30.2,30.2,100,30.03,1.5,Calm,Calm,-,N/A,,Clear,0,2011-10-23 04:20:00
11:23 PM,30.2,30.2,100,30.03,1.8,Calm,Calm,-,N/A,,Clear,0,2011-10-23 04:23:00
11:24 PM,30.2,30.2,100,30.03,2.0,Calm,Calm,-,N/A,,Clear,0,2011-10-23 04:24:00
11:25 PM,30.2,30.2,100,30.03,2.5,Calm,Calm,-,N/A,,Clear,0,2011-10-23 04:25:00
11:26 PM,30.2,30.2,100,30.03,3.0,Calm,Calm,-,N/A,,Clear,0,2011-10-23 04:26:00
11:55 PM,28.8,28.8,100,30.02,9.0,Calm,Calm,-,N/A,,Clear,0,2011-10-23 04:55:00